createdAt,value
2022-08-23T00:00:14.917Z,101316.59
2022-08-23T00:03:19.461Z,101312.34
2022-08-23T00:06:22.825Z,101310.63
2022-08-23T00:09:26.525Z,101307.22
2022-08-23T00:12:28.366Z,101309.94
2022-08-23T00:15:30.049Z,101305.56
2022-08-23T00:18:32.170Z,101296.44
2022-08-23T00:21:37.287Z,101305.22
2022-08-23T00:24:41.042Z,101305.81
2022-08-23T00:27:42.733Z,101301.97
2022-08-23T00:30:44.332Z,101315.31
2022-08-23T00:33:46.074Z,101314.16
2022-08-23T00:36:49.357Z,101308.75
2022-08-23T00:39:51.932Z,101312.31
2022-08-23T00:43:20.289Z,101316.84
2022-08-23T00:46:51.264Z,101310.47
2022-08-23T00:50:02.708Z,101308.63
2022-08-23T00:53:28.241Z,101310.31
2022-08-23T00:56:33.767Z,101311.16
2022-08-23T00:59:35.517Z,101315.59
2022-08-23T01:02:37.722Z,101310.19
2022-08-23T01:06:18.280Z,101318.97
2022-08-23T01:09:21.515Z,101312.88
2022-08-23T01:12:35.612Z,101313.00
2022-08-23T01:15:45.552Z,101316.72
2022-08-23T01:18:48.245Z,101317.72
2022-08-23T01:22:20.009Z,101319.44
2022-08-23T01:25:23.615Z,101324.81
2022-08-23T01:28:25.756Z,101325.66
2022-08-23T01:31:28.538Z,101322.81
2022-08-23T01:34:30.148Z,101323.69
2022-08-23T01:37:36.777Z,101326.50
2022-08-23T01:40:39.697Z,101327.38
2022-08-23T01:43:41.268Z,101325.66
2022-08-23T01:46:46.746Z,101328.34
2022-08-23T01:49:48.322Z,101325.97
2022-08-23T01:52:50.058Z,101309.03
2022-08-23T01:55:51.820Z,101326.09
2022-08-23T01:58:53.705Z,101325.97
2022-08-23T02:01:55.356Z,101329.66
2022-08-23T02:04:57.046Z,101329.66
2022-08-23T02:08:19.071Z,101329.66
2022-08-23T02:11:23.193Z,101323.72
2022-08-23T02:14:24.848Z,101323.00
2022-08-23T02:17:26.514Z,101323.44
2022-08-23T02:20:28.256Z,101321.75
2022-08-23T02:23:29.898Z,101328.13
2022-08-23T02:26:31.757Z,101321.88
2022-08-23T02:29:39.074Z,101325.59
2022-08-23T02:32:42.247Z,101323.00
2022-08-23T02:35:44.348Z,101319.78
2022-08-23T02:38:45.910Z,101319.03
2022-08-23T02:41:47.966Z,101330.00
2022-08-23T02:44:49.568Z,101322.19
2022-08-23T02:47:51.408Z,101316.38
2022-08-23T02:50:53.030Z,101318.22
2022-08-23T02:53:54.649Z,101319.47
2022-08-23T02:56:56.272Z,101316.94
2022-08-23T02:59:58.133Z,101318.06
2022-08-23T03:02:59.945Z,101319.91
2022-08-23T03:06:25.703Z,101328.00
2022-08-23T03:09:24.001Z,101335.25
2022-08-23T03:12:27.177Z,101333.69
2022-08-23T03:15:28.898Z,101334.97
2022-08-23T03:18:30.445Z,101329.00
2022-08-23T03:21:32.552Z,101339.25
2022-08-23T03:24:34.206Z,101333.97
2022-08-23T03:27:43.684Z,101325.19
2022-08-23T03:30:46.656Z,101333.56
2022-08-23T03:33:48.251Z,101335.38
2022-08-23T03:36:49.842Z,101332.00
2022-08-23T03:39:52.332Z,101333.13
2022-08-23T03:42:53.925Z,101344.22
2022-08-23T03:45:55.873Z,101344.50
2022-08-23T03:49:00.583Z,101339.22
2022-08-23T03:52:02.319Z,101335.97
2022-08-23T03:55:05.093Z,101336.97
2022-08-23T03:58:06.685Z,101343.38
2022-08-23T04:01:08.309Z,101339.94
2022-08-23T04:04:10.731Z,101349.03
2022-08-23T04:07:12.405Z,101342.06
2022-08-23T04:10:15.630Z,101343.06
2022-08-23T04:13:17.458Z,101344.06
2022-08-23T04:16:19.111Z,101344.19
2022-08-23T04:19:21.193Z,101341.66
2022-08-23T04:22:25.094Z,101349.03
2022-08-23T04:25:34.492Z,101347.59
2022-08-23T04:28:37.844Z,101348.72
2022-08-23T04:31:39.443Z,101353.56
2022-08-23T04:34:45.496Z,101355.81
2022-08-23T04:37:47.329Z,101360.59
2022-08-23T04:41:11.181Z,101359.88
2022-08-23T04:44:14.832Z,101362.84
2022-08-23T04:50:18.225Z,101365.69
2022-08-23T04:53:20.873Z,101365.94
2022-08-23T04:56:23.533Z,101373.19
2022-08-23T04:59:25.127Z,101370.47
2022-08-23T05:02:27.824Z,101372.31
2022-08-23T05:05:29.411Z,101374.31
2022-08-23T05:08:32.124Z,101379.84
2022-08-23T05:11:33.788Z,101378.97
2022-08-23T05:14:35.462Z,101378.28
2022-08-23T05:17:37.658Z,101381.22
2022-08-23T05:20:39.458Z,101379.84
2022-08-23T05:23:41.148Z,101376.13
2022-08-23T05:26:43.561Z,101380.69
2022-08-23T05:29:47.232Z,101386.22
2022-08-23T05:32:48.893Z,101389.75
2022-08-23T05:35:50.696Z,101392.31
2022-08-23T05:38:53.482Z,101385.78
2022-08-23T05:41:55.104Z,101391.19
2022-08-23T05:44:57.411Z,101398.28
2022-08-23T05:47:59.127Z,101391.19
2022-08-23T05:51:16.365Z,101401.97
2022-08-23T05:54:17.956Z,101399.16
2022-08-23T05:57:19.512Z,101408.22
2022-08-23T06:00:21.667Z,101412.97
2022-08-23T06:03:39.043Z,101416.09
2022-08-23T06:06:42.913Z,101409.47
2022-08-23T06:09:44.472Z,101419.13
2022-08-23T06:12:46.188Z,101416.97
2022-08-23T06:15:47.948Z,101426.38
2022-08-23T06:18:50.995Z,101420.69
2022-08-23T06:21:52.884Z,101426.53
2022-08-23T06:24:54.615Z,101418.88
2022-08-23T06:27:56.256Z,101421.84
2022-08-23T06:30:58.396Z,101433.06
2022-08-23T06:34:00.028Z,101435.22
2022-08-23T06:37:14.450Z,101435.22
2022-08-23T06:40:16.245Z,101426.28
2022-08-23T06:43:20.692Z,101437.25
2022-08-23T06:46:28.134Z,101435.66
2022-08-23T06:49:29.875Z,101440.34
2022-08-23T06:52:31.588Z,101442.50
2022-08-23T06:55:33.574Z,101439.19
2022-08-23T06:58:35.273Z,101440.47
2022-08-23T07:01:46.439Z,101447.00
2022-08-23T07:04:54.121Z,101449.25
2022-08-23T07:07:55.878Z,101453.94
2022-08-23T07:10:57.532Z,101457.63
2022-08-23T07:14:05.728Z,101443.81
2022-08-23T07:17:09.648Z,101450.69
2022-08-23T07:20:11.509Z,101448.84
2022-08-23T07:23:13.062Z,101459.31
2022-08-23T07:26:16.633Z,101457.88
2022-08-23T07:29:20.281Z,101451.22
2022-08-23T07:32:21.858Z,101457.84
2022-08-23T07:35:23.809Z,101455.56
2022-08-23T07:38:25.384Z,101448.16
2022-08-23T07:41:32.792Z,101443.16
2022-08-23T07:44:35.097Z,101458.50
2022-08-23T07:47:36.739Z,101452.19
2022-08-23T07:50:40.136Z,101448.16
2022-08-23T07:53:56.340Z,101450.53
2022-08-23T07:56:58.069Z,101453.88
2022-08-23T07:59:59.641Z,101456.50
2022-08-23T08:03:01.296Z,101457.97
2022-08-23T08:06:08.155Z,101459.44
2022-08-23T08:09:10.673Z,101456.66
2022-08-23T08:12:12.333Z,101464.88
2022-08-23T08:15:14.121Z,101460.44
2022-08-23T08:18:15.784Z,101466.91
2022-08-23T08:21:18.085Z,101463.41
2022-08-23T08:24:19.699Z,101465.34
2022-08-23T08:27:21.827Z,101470.13
2022-08-23T08:30:23.465Z,101470.50
2022-08-23T08:33:27.530Z,101469.72
2022-08-23T08:36:44.057Z,101468.78
2022-08-23T08:39:46.201Z,101473.41
2022-08-23T08:42:47.816Z,101475.50
2022-08-23T08:46:18.997Z,101471.97
2022-08-23T08:49:33.971Z,101470.50
2022-08-23T08:52:38.131Z,101473.94
2022-08-23T08:55:45.054Z,101476.53
2022-08-23T08:58:52.149Z,101473.69
2022-08-23T09:01:53.895Z,101476.44
2022-08-23T09:04:55.618Z,101472.75
2022-08-23T09:08:03.477Z,101466.22
2022-08-23T09:11:30.382Z,101466.75
2022-08-23T09:14:35.021Z,101468.13
2022-08-23T09:17:48.741Z,101470.69
2022-08-23T09:20:54.325Z,101468.00
2022-08-23T09:24:00.361Z,101466.31
2022-08-23T09:27:03.871Z,101467.34
2022-08-23T09:30:06.712Z,101472.66
2022-08-23T09:33:17.714Z,101471.44
2022-08-23T09:36:23.947Z,101479.94
2022-08-23T09:39:33.349Z,101479.25
2022-08-23T09:42:37.796Z,101469.22
2022-08-23T09:45:51.018Z,101464.63
2022-08-23T09:48:55.276Z,101470.53
2022-08-23T09:52:01.177Z,101473.88
2022-08-23T09:55:08.684Z,101461.78
2022-08-23T09:58:18.675Z,101456.78
2022-08-23T10:01:28.888Z,101459.94
2022-08-23T10:04:58.477Z,101463.41
2022-08-23T10:08:01.765Z,101450.41
2022-08-23T10:11:24.661Z,101457.19
2022-08-23T10:14:30.706Z,101454.88
2022-08-23T10:17:40.677Z,101452.22
2022-08-23T10:20:51.424Z,101457.91
2022-08-23T10:24:14.989Z,101459.59
2022-08-23T10:27:46.974Z,101459.94
2022-08-23T10:31:02.257Z,101460.16
2022-08-23T10:34:03.856Z,101461.59
2022-08-23T10:37:53.105Z,101461.97
2022-08-23T10:41:33.088Z,101455.13
2022-08-23T10:44:42.443Z,101441.25
2022-08-23T10:47:52.217Z,101465.03
2022-08-23T10:51:04.713Z,101468.66
2022-08-23T10:54:16.349Z,101463.09
2022-08-23T10:57:21.798Z,101466.28
2022-08-23T11:00:26.942Z,101453.06
2022-08-23T11:03:31.019Z,101458.31
2022-08-23T11:06:35.597Z,101449.75
2022-08-23T11:10:09.980Z,101440.69
2022-08-23T11:13:18.479Z,101443.03
2022-08-23T11:16:31.343Z,101440.81
2022-08-23T11:19:53.399Z,101450.31
2022-08-23T11:22:57.828Z,101443.88
2022-08-23T11:25:59.638Z,101446.91
2022-08-23T11:29:07.277Z,101439.81
2022-08-23T11:32:11.705Z,101441.28
2022-08-23T11:35:43.105Z,101441.28
2022-08-23T11:38:48.289Z,101446.50
2022-08-23T11:41:55.879Z,101449.25
2022-08-23T11:44:57.695Z,101445.78
2022-08-23T11:48:22.761Z,101443.63
2022-08-23T11:52:19.319Z,101443.75
2022-08-23T11:55:20.935Z,101439.56
2022-08-23T11:58:46.509Z,101432.41
2022-08-23T12:01:51.065Z,101434.94
2022-08-23T12:04:55.643Z,101432.19
2022-08-23T12:08:03.513Z,101432.00
2022-08-23T12:11:10.291Z,101434.16
2022-08-23T12:14:32.198Z,101427.84
2022-08-23T12:17:40.273Z,101431.66
2022-08-23T12:20:48.576Z,101422.81
2022-08-23T12:24:01.349Z,101425.53
2022-08-23T12:27:14.033Z,101430.41
2022-08-23T12:30:42.774Z,101422.00
2022-08-23T12:34:12.544Z,101429.16
2022-08-23T12:37:25.768Z,101422.81
2022-08-23T12:40:42.624Z,101422.63
2022-08-23T12:44:09.954Z,101416.31
2022-08-23T12:47:20.429Z,101417.63
2022-08-23T12:50:33.090Z,101417.03
2022-08-23T12:53:36.844Z,101414.53
2022-08-23T12:56:40.746Z,101425.53
2022-08-23T12:59:50.376Z,101428.06
2022-08-23T13:03:16.036Z,101429.31
2022-08-23T13:06:25.215Z,101418.53
2022-08-23T13:09:29.290Z,101419.44
2022-08-23T13:12:31.379Z,101424.28
2022-08-23T13:15:48.322Z,101419.19
2022-08-23T13:18:50.092Z,101421.31
2022-08-23T13:22:25.421Z,101414.59
2022-08-23T13:25:39.714Z,101415.22
2022-08-23T13:28:41.382Z,101417.72
2022-08-23T13:31:59.266Z,101418.38
2022-08-23T13:35:22.626Z,101421.31
2022-08-23T13:38:32.283Z,101412.88
2022-08-23T13:41:38.966Z,101418.56
2022-08-23T13:44:41.028Z,101426.59
2022-08-23T13:47:52.059Z,101413.28
2022-08-23T13:50:53.820Z,101418.56
2022-08-23T13:53:57.522Z,101417.25
2022-08-23T13:57:13.680Z,101408.19
2022-08-23T14:00:19.498Z,101406.91
2022-08-23T14:03:21.553Z,101417.47
2022-08-23T14:06:24.091Z,101410.31
2022-08-23T14:09:25.800Z,101400.84
2022-08-23T14:12:30.526Z,101406.97
2022-08-23T14:22:17.814Z,101412.66
2022-08-23T14:25:19.607Z,101404.66
2022-08-23T14:28:24.353Z,101402.72
2022-08-23T14:31:26.029Z,101397.44
2022-08-23T14:34:29.156Z,101405.69
2022-08-23T14:40:57.737Z,101403.63
2022-08-23T14:43:59.880Z,101400.88
2022-08-23T14:47:01.640Z,101396.63
2022-08-23T14:50:07.269Z,101409.09
2022-08-23T14:53:10.130Z,101391.78
2022-08-23T14:56:21.244Z,101391.56
2022-08-23T14:59:23.425Z,101396.41
2022-08-23T15:02:26.820Z,101394.13
2022-08-23T15:05:28.525Z,101392.44
2022-08-23T15:08:30.247Z,101392.19
2022-08-23T15:14:53.948Z,101385.44
2022-08-23T15:18:00.982Z,101377.63
2022-08-23T15:21:03.007Z,101379.97
2022-08-23T15:24:05.426Z,101379.34
2022-08-23T15:27:08.078Z,101378.69
2022-08-23T15:30:11.827Z,101383.13
2022-08-23T15:33:14.034Z,101381.00
2022-08-23T15:36:16.671Z,101380.78
2022-08-23T15:39:18.490Z,101381.88
2022-08-23T15:42:20.761Z,101382.47
2022-08-23T15:45:22.738Z,101379.09
2022-08-23T15:48:37.081Z,101381.19
2022-08-23T15:51:39.663Z,101373.59
2022-08-23T15:54:41.435Z,101375.88
2022-08-23T15:57:48.906Z,101363.25
2022-08-23T16:00:52.117Z,101369.59
2022-08-23T16:03:53.826Z,101365.56
2022-08-23T16:06:55.586Z,101366.41
2022-08-23T16:09:59.705Z,101374.00
2022-08-23T16:13:01.675Z,101372.09
2022-08-23T16:16:03.698Z,101370.59
2022-08-23T16:19:05.988Z,101365.34
2022-08-23T16:22:07.688Z,101365.97
2022-08-23T16:25:09.764Z,101370.16
2022-08-23T16:28:11.316Z,101366.78
2022-08-23T16:31:13.690Z,101361.94
2022-08-23T16:34:20.191Z,101366.13
2022-08-23T16:37:21.827Z,101361.47
2022-08-23T16:40:23.705Z,101363.97
2022-08-23T16:43:25.296Z,101358.25
2022-08-23T16:46:28.917Z,101365.59
2022-08-23T16:49:33.533Z,101359.66
2022-08-23T16:52:36.038Z,101365.31
2022-08-23T16:55:39.982Z,101363.59
2022-08-23T16:58:42.175Z,101360.19
2022-08-23T17:02:01.135Z,101360.97
2022-08-23T17:05:16.578Z,101366.81
2022-08-23T17:08:18.963Z,101360.09
2022-08-23T17:11:20.817Z,101359.44
2022-08-23T17:14:24.171Z,101367.19
2022-08-23T17:17:25.960Z,101362.53
2022-08-23T17:20:29.973Z,101363.13
2022-08-23T17:23:31.856Z,101362.06
2022-08-23T17:26:35.372Z,101362.00
2022-08-23T17:29:37.471Z,101368.28
2022-08-23T17:32:39.591Z,101372.66
2022-08-23T17:35:41.396Z,101380.78
2022-08-23T17:38:42.951Z,101384.66
2022-08-23T17:41:45.692Z,101380.84
2022-08-23T17:44:47.525Z,101385.41
2022-08-23T17:47:49.812Z,101388.28
2022-08-23T17:50:51.473Z,101388.41
2022-08-23T17:53:53.180Z,101392.97
2022-08-23T17:56:54.839Z,101389.31
2022-08-23T17:59:57.190Z,101391.94
2022-08-23T18:02:59.233Z,101396.50
2022-08-23T18:06:01.483Z,101387.38
2022-08-23T18:09:18.665Z,101391.94
2022-08-23T18:12:20.348Z,101401.53
2022-08-23T18:15:22.056Z,101398.94
2022-08-23T18:18:23.653Z,101408.72
2022-08-23T18:21:26.243Z,101402.34
2022-08-23T18:24:27.954Z,101412.31
2022-08-23T18:27:48.393Z,101413.91
2022-08-23T18:30:54.674Z,101416.72
2022-08-23T18:34:00.316Z,101424.81
2022-08-23T18:37:02.525Z,101433.25
2022-08-23T18:40:09.750Z,101436.75
2022-08-23T18:43:16.990Z,101435.97
2022-08-23T18:46:18.956Z,101438.81
2022-08-23T18:49:20.549Z,101446.19
2022-08-23T18:52:22.209Z,101442.84
2022-08-23T18:55:23.976Z,101446.50
2022-08-23T18:58:25.739Z,101448.28
2022-08-23T19:01:34.480Z,101448.53
2022-08-23T19:04:36.816Z,101447.94
2022-08-23T19:07:38.621Z,101460.09
2022-08-23T19:10:42.632Z,101461.31
2022-08-23T19:13:44.520Z,101465.13
2022-08-23T19:16:48.770Z,101466.22
2022-08-23T19:19:50.754Z,101470.19
2022-08-23T19:22:54.240Z,101480.09
2022-08-23T19:25:56.254Z,101488.09
2022-08-23T19:28:59.945Z,101485.56
2022-08-23T19:32:04.097Z,101495.78
2022-08-23T19:35:10.394Z,101486.81
2022-08-23T19:38:14.370Z,101492.47
2022-08-23T19:41:16.087Z,101499.63
2022-08-23T19:44:17.956Z,101502.19
2022-08-23T19:47:22.202Z,101497.44
2022-08-23T19:50:26.793Z,101499.97
2022-08-23T19:53:28.409Z,101505.25
2022-08-23T19:56:43.541Z,101507.63
2022-08-23T19:59:46.468Z,101504.22
2022-08-23T20:02:48.568Z,101506.78
2022-08-23T20:05:50.330Z,101511.03
2022-08-23T20:08:52.328Z,101510.03
2022-08-23T20:11:53.996Z,101510.69
2022-08-23T20:14:56.048Z,101516.81
2022-08-23T20:17:58.579Z,101510.00
2022-08-23T20:21:00.588Z,101521.19
2022-08-23T20:24:04.364Z,101523.41
2022-08-23T20:27:07.076Z,101522.88
2022-08-23T20:30:14.428Z,101526.06
2022-08-23T20:33:16.240Z,101529.28
2022-08-23T20:36:20.321Z,101540.81
2022-08-23T20:39:24.268Z,101527.22
2022-08-23T20:42:26.361Z,101533.13
2022-08-23T20:45:28.069Z,101544.50
2022-08-23T20:48:31.356Z,101541.28
2022-08-23T20:51:36.638Z,101539.88
2022-08-23T20:54:39.288Z,101547.53
2022-08-23T20:57:41.025Z,101542.41
2022-08-23T21:00:42.930Z,101541.72
2022-08-23T21:03:44.587Z,101542.06
2022-08-23T21:06:48.936Z,101533.38
2022-08-23T21:09:50.955Z,101544.59
2022-08-23T21:12:52.909Z,101549.47
2022-08-23T21:15:54.615Z,101540.81
2022-08-23T21:18:56.912Z,101536.00
2022-08-23T21:21:58.553Z,101540.19
2022-08-23T21:25:00.211Z,101537.97
2022-08-23T21:28:04.402Z,101543.03
2022-08-23T21:31:09.236Z,101549.94
2022-08-23T21:34:11.907Z,101545.88
2022-08-23T21:37:13.484Z,101553.63
2022-08-23T21:40:15.100Z,101550.56
2022-08-23T21:43:16.981Z,101549.00
2022-08-23T21:46:18.818Z,101543.22
2022-08-23T21:49:23.768Z,101548.94
2022-08-23T21:52:25.721Z,101548.44
2022-08-23T21:55:36.257Z,101542.47
2022-08-23T21:58:39.685Z,101541.59
2022-08-23T22:01:42.822Z,101539.38
2022-08-23T22:04:44.700Z,101535.41
2022-08-23T22:07:47.166Z,101549.44
2022-08-23T22:10:57.732Z,101543.50
2022-08-23T22:14:00.475Z,101546.50
2022-08-23T22:17:02.101Z,101543.63
2022-08-23T22:20:06.768Z,101558.78
2022-08-23T22:23:08.393Z,101558.41
2022-08-23T22:26:11.704Z,101550.91
2022-08-23T22:29:14.121Z,101547.97
2022-08-23T22:32:15.876Z,101545.88
2022-08-23T22:35:18.461Z,101541.09
2022-08-23T22:38:20.404Z,101539.00
2022-08-23T22:41:27.300Z,101545.75
2022-08-23T22:44:29.102Z,101540.94
2022-08-23T22:47:31.101Z,101544.97
2022-08-23T22:50:32.652Z,101547.28
2022-08-23T22:53:37.080Z,101551.34
2022-08-23T22:56:48.146Z,101561.59
2022-08-23T22:59:49.703Z,101555.66
2022-08-23T23:02:52.042Z,101557.50
2022-08-23T23:05:53.801Z,101553.06
2022-08-23T23:08:56.512Z,101553.06
2022-08-23T23:11:58.108Z,101557.78
2022-08-23T23:14:59.817Z,101561.47
2022-08-23T23:18:01.591Z,101566.19
2022-08-23T23:21:05.074Z,101556.41
2022-08-23T23:24:07.381Z,101568.22
2022-08-23T23:27:09.860Z,101564.81
2022-08-23T23:30:11.909Z,101562.25
2022-08-23T23:33:14.763Z,101570.53
2022-08-23T23:36:16.600Z,101564.41
2022-08-23T23:39:19.237Z,101571.00
2022-08-23T23:42:20.899Z,101567.72
2022-08-23T23:45:23.073Z,101556.38
2022-08-23T23:48:24.816Z,101565.63
2022-08-23T23:51:30.812Z,101566.91
2022-08-23T23:54:35.512Z,101569.94
2022-08-23T23:57:37.692Z,101562.25
